Altona, New York
Current Conditions -  °F | °C
As of 7:53 PM on Friday 24 Oct 2014 (Local Time) from KPBG Reporting Station
Overcast Overcast  
Wind Chill: 49°   Ceiling: 10000
Heat Index: 49°   Visibility: 10mi
Dew Point: 41°   Wind: 3mph
Humidity: 74%   Direction: 260°W
Pressure: 29.84"   Gusts: NA
Location:  44.89°N, 73.66°W
Report Text: KPBG 242353Z AUTO 26003KT 10SM OVC100 09/05 A2984 RMK AO2 SLP106 T00940050 10106 20089 58001
Loading
Personal Weather Stations






























Interactive Weather Map
Tropical Storm Tracking
New forecast layout! Learn more

10-Day Weather Forecast

Advertisements
Track Severe Weather on mobile